sensor_id;sensor_type;location;lat;lon;timestamp;temperature;humidity
21312;DHT22;18076;52.154;10.570;2023-03-08T00:01:20;0.30;99.90
21312;DHT22;18076;52.154;10.570;2023-03-08T00:03:49;0.30;99.90
21312;DHT22;18076;52.154;10.570;2023-03-08T00:06:15;0.30;99.90
21312;DHT22;18076;52.154;10.570;2023-03-08T00:08:41;0.40;99.90
21312;DHT22;18076;52.154;10.570;2023-03-08T00:11:07;0.40;99.90
21312;DHT22;18076;52.154;10.570;2023-03-08T00:13:34;0.40;99.90
21312;DHT22;18076;52.154;10.570;2023-03-08T00:16:00;0.40;99.90
21312;DHT22;18076;52.154;10.570;2023-03-08T00:18:26;0.30;99.90
21312;DHT22;18076;52.154;10.570;2023-03-08T00:20:58;0.30;99.90
21312;DHT22;18076;52.154;10.570;2023-03-08T00:23:24;0.40;99.90
21312;DHT22;18076;52.154;10.570;2023-03-08T00:25:53;0.40;99.90
21312;DHT22;18076;52.154;10.570;2023-03-08T00:28:18;0.40;99.90
21312;DHT22;18076;52.154;10.570;2023-03-08T00:30:44;0.30;99.90
21312;DHT22;18076;52.154;10.570;2023-03-08T00:33:09;0.40;99.90
21312;DHT22;18076;52.154;10.570;2023-03-08T00:35:35;0.40;99.90
21312;DHT22;18076;52.154;10.570;2023-03-08T00:38:00;0.40;99.90
21312;DHT22;18076;52.154;10.570;2023-03-08T00:40:26;0.50;99.90
21312;DHT22;18076;52.154;10.570;2023-03-08T00:42:51;0.50;99.90
21312;DHT22;18076;52.154;10.570;2023-03-08T00:45:17;0.50;99.90
21312;DHT22;18076;52.154;10.570;2023-03-08T00:47:42;0.50;99.90
21312;DHT22;18076;52.154;10.570;2023-03-08T00:50:08;0.60;99.90
21312;DHT22;18076;52.154;10.570;2023-03-08T00:52:37;0.60;99.90
21312;DHT22;18076;52.154;10.570;2023-03-08T00:55:02;0.70;99.90
21312;DHT22;18076;52.154;10.570;2023-03-08T00:57:28;0.70;99.90
21312;DHT22;18076;52.154;10.570;2023-03-08T00:59:55;0.60;99.90
21312;DHT22;18076;52.154;10.570;2023-03-08T01:02:20;0.60;99.90
21312;DHT22;18076;52.154;10.570;2023-03-08T01:04:46;0.60;99.90
21312;DHT22;18076;52.154;10.570;2023-03-08T01:07:11;0.50;99.90
21312;DHT22;18076;52.154;10.570;2023-03-08T01:09:37;0.50;99.90
21312;DHT22;18076;52.154;10.570;2023-03-08T01:12:02;0.50;99.90
21312;DHT22;18076;52.154;10.570;2023-03-08T01:14:28;0.50;99.90
21312;DHT22;18076;52.154;10.570;2023-03-08T01:16:54;0.50;99.90
21312;DHT22;18076;52.154;10.570;2023-03-08T01:19:20;0.50;99.90
21312;DHT22;18076;52.154;10.570;2023-03-08T01:21:45;0.50;99.90
21312;DHT22;18076;52.154;10.570;2023-03-08T01:24:11;0.50;99.90
21312;DHT22;18076;52.154;10.570;2023-03-08T01:26:36;0.50;99.90
21312;DHT22;18076;52.154;10.570;2023-03-08T01:29:02;0.60;99.90
21312;DHT22;18076;52.154;10.570;2023-03-08T01:31:28;0.60;99.90
21312;DHT22;18076;52.154;10.570;2023-03-08T01:33:54;0.60;99.90
21312;DHT22;18076;52.154;10.570;2023-03-08T01:36:21;0.60;99.90
21312;DHT22;18076;52.154;10.570;2023-03-08T01:38:47;0.60;99.90
21312;DHT22;18076;52.154;10.570;2023-03-08T01:41:14;0.70;99.90
21312;DHT22;18076;52.154;10.570;2023-03-08T01:43:40;0.70;99.90
21312;DHT22;18076;52.154;10.570;2023-03-08T01:46:20;0.70;99.90
21312;DHT22;18076;52.154;10.570;2023-03-08T01:48:48;0.70;99.90
21312;DHT22;18076;52.154;10.570;2023-03-08T01:51:14;0.80;99.90
21312;DHT22;18076;52.154;10.570;2023-03-08T01:53:41;0.80;99.90
21312;DHT22;18076;52.154;10.570;2023-03-08T01:56:08;0.80;99.90
21312;DHT22;18076;52.154;10.570;2023-03-08T01:58:34;0.80;99.90
21312;DHT22;18076;52.154;10.570;2023-03-08T02:01:00;0.70;99.90
21312;DHT22;18076;52.154;10.570;2023-03-08T02:03:25;0.70;99.90
21312;DHT22;18076;52.154;10.570;2023-03-08T02:05:51;0.80;99.90
21312;DHT22;18076;52.154;10.570;2023-03-08T02:08:16;0.80;99.90
21312;DHT22;18076;52.154;10.570;2023-03-08T02:10:43;0.80;99.90
21312;DHT22;18076;52.154;10.570;2023-03-08T02:13:09;0.80;99.90
21312;DHT22;18076;52.154;10.570;2023-03-08T02:15:35;0.80;99.90
21312;DHT22;18076;52.154;10.570;2023-03-08T02:18:00;0.80;99.90
21312;DHT22;18076;52.154;10.570;2023-03-08T02:20:33;0.80;99.90
21312;DHT22;18076;52.154;10.570;2023-03-08T02:23:07;0.80;99.90
21312;DHT22;18076;52.154;10.570;2023-03-08T02:25:36;0.80;99.90
21312;DHT22;18076;52.154;10.570;2023-03-08T02:28:01;0.80;99.90
21312;DHT22;18076;52.154;10.570;2023-03-08T02:30:31;0.80;99.90
21312;DHT22;18076;52.154;10.570;2023-03-08T02:32:57;0.80;99.90
21312;DHT22;18076;52.154;10.570;2023-03-08T02:35:22;0.80;99.90
21312;DHT22;18076;52.154;10.570;2023-03-08T02:37:48;0.80;99.90
21312;DHT22;18076;52.154;10.570;2023-03-08T02:40:13;0.80;99.90
21312;DHT22;18076;52.154;10.570;2023-03-08T02:42:39;0.80;99.90
21312;DHT22;18076;52.154;10.570;2023-03-08T02:45:05;0.80;99.90
21312;DHT22;18076;52.154;10.570;2023-03-08T02:47:31;0.80;99.90
21312;DHT22;18076;52.154;10.570;2023-03-08T02:49:57;0.80;99.90
21312;DHT22;18076;52.154;10.570;2023-03-08T02:52:22;0.80;99.90
21312;DHT22;18076;52.154;10.570;2023-03-08T02:54:48;0.80;99.90
21312;DHT22;18076;52.154;10.570;2023-03-08T02:57:13;0.80;99.90
21312;DHT22;18076;52.154;10.570;2023-03-08T02:59:39;0.80;99.90
21312;DHT22;18076;52.154;10.570;2023-03-08T03:02:04;0.80;99.90
21312;DHT22;18076;52.154;10.570;2023-03-08T03:04:31;0.80;99.90
21312;DHT22;18076;52.154;10.570;2023-03-08T03:06:57;0.80;99.90
21312;DHT22;18076;52.154;10.570;2023-03-08T03:09:23;0.80;99.90
21312;DHT22;18076;52.154;10.570;2023-03-08T03:11:49;0.80;99.90
21312;DHT22;18076;52.154;10.570;2023-03-08T03:14:14;0.90;99.90
21312;DHT22;18076;52.154;10.570;2023-03-08T03:16:40;0.90;99.90
21312;DHT22;18076;52.154;10.570;2023-03-08T03:19:05;0.90;99.90
21312;DHT22;18076;52.154;10.570;2023-03-08T03:21:31;0.80;99.90
21312;DHT22;18076;52.154;10.570;2023-03-08T03:23:57;0.80;99.90
21312;DHT22;18076;52.154;10.570;2023-03-08T03:26:22;0.80;99.90
21312;DHT22;18076;52.154;10.570;2023-03-08T03:28:48;0.80;99.90
21312;DHT22;18076;52.154;10.570;2023-03-08T03:31:15;0.80;99.90
21312;DHT22;18076;52.154;10.570;2023-03-08T03:33:41;0.70;99.90
21312;DHT22;18076;52.154;10.570;2023-03-08T03:36:07;0.70;99.90
21312;DHT22;18076;52.154;10.570;2023-03-08T03:38:34;0.70;99.90
21312;DHT22;18076;52.154;10.570;2023-03-08T03:41:06;0.60;99.90
21312;DHT22;18076;52.154;10.570;2023-03-08T03:43:32;0.60;99.90
21312;DHT22;18076;52.154;10.570;2023-03-08T03:45:58;0.50;99.90
21312;DHT22;18076;52.154;10.570;2023-03-08T03:48:24;0.50;99.90
21312;DHT22;18076;52.154;10.570;2023-03-08T03:50:54;0.60;99.90
21312;DHT22;18076;52.154;10.570;2023-03-08T03:53:20;0.50;99.90
21312;DHT22;18076;52.154;10.570;2023-03-08T03:55:45;0.50;99.90
21312;DHT22;18076;52.154;10.570;2023-03-08T03:58:11;0.50;99.90
21312;DHT22;18076;52.154;10.570;2023-03-08T04:00:36;0.40;99.90
21312;DHT22;18076;52.154;10.570;2023-03-08T04:03:05;0.40;99.90
21312;DHT22;18076;52.154;10.570;2023-03-08T04:05:30;0.40;99.90
21312;DHT22;18076;52.154;10.570;2023-03-08T04:07:56;0.40;99.90
21312;DHT22;18076;52.154;10.570;2023-03-08T04:10:21;0.50;99.90
21312;DHT22;18076;52.154;10.570;2023-03-08T04:12:47;0.50;99.90
21312;DHT22;18076;52.154;10.570;2023-03-08T04:15:13;0.60;99.90
21312;DHT22;18076;52.154;10.570;2023-03-08T04:17:39;0.60;99.90
21312;DHT22;18076;52.154;10.570;2023-03-08T04:20:05;0.70;99.90
21312;DHT22;18076;52.154;10.570;2023-03-08T04:22:30;0.70;99.90
21312;DHT22;18076;52.154;10.570;2023-03-08T04:24:56;0.70;99.90
21312;DHT22;18076;52.154;10.570;2023-03-08T04:27:22;0.70;99.90
21312;DHT22;18076;52.154;10.570;2023-03-08T04:29:47;0.70;99.90
21312;DHT22;18076;52.154;10.570;2023-03-08T04:32:13;0.60;99.90
21312;DHT22;18076;52.154;10.570;2023-03-08T04:34:38;0.50;99.90
21312;DHT22;18076;52.154;10.570;2023-03-08T04:37:04;0.50;99.90
21312;DHT22;18076;52.154;10.570;2023-03-08T04:39:29;0.50;99.90
21312;DHT22;18076;52.154;10.570;2023-03-08T04:41:55;0.40;99.90
21312;DHT22;18076;52.154;10.570;2023-03-08T04:44:20;0.40;99.90
21312;DHT22;18076;52.154;10.570;2023-03-08T04:46:46;0.40;99.90
21312;DHT22;18076;52.154;10.570;2023-03-08T04:49:11;0.30;99.90
21312;DHT22;18076;52.154;10.570;2023-03-08T04:51:37;0.30;99.90
21312;DHT22;18076;52.154;10.570;2023-03-08T04:54:02;0.30;99.90
21312;DHT22;18076;52.154;10.570;2023-03-08T04:56:29;0.20;99.90
21312;DHT22;18076;52.154;10.570;2023-03-08T04:58:54;0.20;99.90
21312;DHT22;18076;52.154;10.570;2023-03-08T05:01:20;0.20;99.90
21312;DHT22;18076;52.154;10.570;2023-03-08T05:03:47;0.10;99.90
21312;DHT22;18076;52.154;10.570;2023-03-08T05:06:13;0.10;99.90
21312;DHT22;18076;52.154;10.570;2023-03-08T05:08:39;0.00;99.90
21312;DHT22;18076;52.154;10.570;2023-03-08T05:11:05;0.00;99.90
21312;DHT22;18076;52.154;10.570;2023-03-08T05:13:32;-0.10;99.90
21312;DHT22;18076;52.154;10.570;2023-03-08T05:15:58;-0.10;99.90
21312;DHT22;18076;52.154;10.570;2023-03-08T05:18:23;-0.20;99.90
21312;DHT22;18076;52.154;10.570;2023-03-08T05:20:53;-0.30;99.90
21312;DHT22;18076;52.154;10.570;2023-03-08T05:23:18;-0.30;99.90
21312;DHT22;18076;52.154;10.570;2023-03-08T05:25:44;-0.40;99.90
21312;DHT22;18076;52.154;10.570;2023-03-08T05:28:09;-0.40;99.90
21312;DHT22;18076;52.154;10.570;2023-03-08T05:30:40;-0.40;99.90
21312;DHT22;18076;52.154;10.570;2023-03-08T05:33:05;-0.50;99.90
21312;DHT22;18076;52.154;10.570;2023-03-08T05:35:31;-0.50;99.90
21312;DHT22;18076;52.154;10.570;2023-03-08T05:37:57;-0.60;99.90
21312;DHT22;18076;52.154;10.570;2023-03-08T05:40:24;-0.60;99.90
21312;DHT22;18076;52.154;10.570;2023-03-08T05:42:49;-0.60;99.90
21312;DHT22;18076;52.154;10.570;2023-03-08T05:45:15;-0.60;99.90
21312;DHT22;18076;52.154;10.570;2023-03-08T05:47:40;-0.60;99.90
21312;DHT22;18076;52.154;10.570;2023-03-08T05:50:06;-0.60;99.90
21312;DHT22;18076;52.154;10.570;2023-03-08T05:52:32;-0.60;99.90
21312;DHT22;18076;52.154;10.570;2023-03-08T05:54:57;-0.60;99.90
21312;DHT22;18076;52.154;10.570;2023-03-08T05:57:23;-0.60;99.90
21312;DHT22;18076;52.154;10.570;2023-03-08T05:59:48;-0.60;99.90
21312;DHT22;18076;52.154;10.570;2023-03-08T06:02:14;-0.50;99.90
21312;DHT22;18076;52.154;10.570;2023-03-08T06:04:39;-0.50;99.90
21312;DHT22;18076;52.154;10.570;2023-03-08T06:07:06;-0.40;99.90
21312;DHT22;18076;52.154;10.570;2023-03-08T06:09:32;-0.30;99.90
21312;DHT22;18076;52.154;10.570;2023-03-08T06:11:58;-0.10;99.90
21312;DHT22;18076;52.154;10.570;2023-03-08T06:14:24;0.00;99.90
21312;DHT22;18076;52.154;10.570;2023-03-08T06:16:49;0.10;99.90
21312;DHT22;18076;52.154;10.570;2023-03-08T06:19:15;0.00;99.90
21312;DHT22;18076;52.154;10.570;2023-03-08T06:21:43;0.00;99.90
21312;DHT22;18076;52.154;10.570;2023-03-08T06:24:09;0.10;99.90
21312;DHT22;18076;52.154;10.570;2023-03-08T06:26:35;0.10;99.90
21312;DHT22;18076;52.154;10.570;2023-03-08T06:29:00;0.10;99.90
21312;DHT22;18076;52.154;10.570;2023-03-08T06:31:26;0.10;99.90
21312;DHT22;18076;52.154;10.570;2023-03-08T06:33:51;0.10;99.90
21312;DHT22;18076;52.154;10.570;2023-03-08T06:36:18;0.10;99.90
21312;DHT22;18076;52.154;10.570;2023-03-08T06:38:44;0.20;99.90
21312;DHT22;18076;52.154;10.570;2023-03-08T06:41:13;0.20;99.90
21312;DHT22;18076;52.154;10.570;2023-03-08T06:43:40;0.20;99.90
21312;DHT22;18076;52.154;10.570;2023-03-08T06:46:08;0.30;99.90
21312;DHT22;18076;52.154;10.570;2023-03-08T06:48:34;0.40;99.90
21312;DHT22;18076;52.154;10.570;2023-03-08T06:51:00;0.50;99.90
21312;DHT22;18076;52.154;10.570;2023-03-08T06:53:26;0.40;99.90
21312;DHT22;18076;52.154;10.570;2023-03-08T06:55:52;0.50;99.90
21312;DHT22;18076;52.154;10.570;2023-03-08T06:58:19;0.50;99.90
21312;DHT22;18076;52.154;10.570;2023-03-08T07:00:44;0.60;99.90
21312;DHT22;18076;52.154;10.570;2023-03-08T07:03:13;0.70;99.90
21312;DHT22;18076;52.154;10.570;2023-03-08T07:05:39;0.70;99.90
21312;DHT22;18076;52.154;10.570;2023-03-08T07:08:05;0.80;99.90
21312;DHT22;18076;52.154;10.570;2023-03-08T07:10:30;0.90;99.90
21312;DHT22;18076;52.154;10.570;2023-03-08T07:12:56;1.00;99.90
21312;DHT22;18076;52.154;10.570;2023-03-08T07:15:22;1.10;99.90
21312;DHT22;18076;52.154;10.570;2023-03-08T07:17:48;1.20;99.90
21312;DHT22;18076;52.154;10.570;2023-03-08T07:20:15;1.30;99.90
21312;DHT22;18076;52.154;10.570;2023-03-08T07:22:41;1.40;99.90
21312;DHT22;18076;52.154;10.570;2023-03-08T07:25:08;1.40;99.90
21312;DHT22;18076;52.154;10.570;2023-03-08T07:27:34;1.50;99.90
21312;DHT22;18076;52.154;10.570;2023-03-08T07:30:00;1.50;99.90
21312;DHT22;18076;52.154;10.570;2023-03-08T07:32:25;1.50;99.90
21312;DHT22;18076;52.154;10.570;2023-03-08T07:34:53;1.60;99.90
21312;DHT22;18076;52.154;10.570;2023-03-08T07:37:19;1.60;99.90
21312;DHT22;18076;52.154;10.570;2023-03-08T07:39:44;1.60;99.90
21312;DHT22;18076;52.154;10.570;2023-03-08T07:42:10;1.60;99.90
21312;DHT22;18076;52.154;10.570;2023-03-08T07:44:36;1.70;99.90
21312;DHT22;18076;52.154;10.570;2023-03-08T07:47:02;1.80;99.90
21312;DHT22;18076;52.154;10.570;2023-03-08T07:49:29;1.80;99.90
21312;DHT22;18076;52.154;10.570;2023-03-08T07:52:03;1.80;99.90
21312;DHT22;18076;52.154;10.570;2023-03-08T07:54:28;1.90;99.90
21312;DHT22;18076;52.154;10.570;2023-03-08T07:56:54;2.10;99.90
21312;DHT22;18076;52.154;10.570;2023-03-08T07:59:23;2.20;99.90
21312;DHT22;18076;52.154;10.570;2023-03-08T08:01:48;2.30;99.90
21312;DHT22;18076;52.154;10.570;2023-03-08T08:04:14;2.50;99.90
21312;DHT22;18076;52.154;10.570;2023-03-08T08:06:40;2.60;99.90
21312;DHT22;18076;52.154;10.570;2023-03-08T08:09:06;2.70;99.90
21312;DHT22;18076;52.154;10.570;2023-03-08T08:11:32;2.70;99.90
21312;DHT22;18076;52.154;10.570;2023-03-08T08:13:59;2.60;99.90
21312;DHT22;18076;52.154;10.570;2023-03-08T08:16:24;2.60;99.90
21312;DHT22;18076;52.154;10.570;2023-03-08T08:18:50;2.50;99.90
21312;DHT22;18076;52.154;10.570;2023-03-08T08:21:16;2.40;99.90
21312;DHT22;18076;52.154;10.570;2023-03-08T08:23:42;2.30;99.90
21312;DHT22;18076;52.154;10.570;2023-03-08T08:26:09;2.20;99.90
21312;DHT22;18076;52.154;10.570;2023-03-08T08:28:35;2.30;99.90
21312;DHT22;18076;52.154;10.570;2023-03-08T08:31:02;2.30;99.90
21312;DHT22;18076;52.154;10.570;2023-03-08T08:33:29;2.30;99.90
21312;DHT22;18076;52.154;10.570;2023-03-08T08:35:55;2.20;99.90
21312;DHT22;18076;52.154;10.570;2023-03-08T08:38:21;2.30;99.90
21312;DHT22;18076;52.154;10.570;2023-03-08T08:40:46;2.40;99.90
21312;DHT22;18076;52.154;10.570;2023-03-08T08:43:12;2.40;99.90
21312;DHT22;18076;52.154;10.570;2023-03-08T08:56:21;2.40;99.90
21312;DHT22;18076;52.154;10.570;2023-03-08T08:58:46;2.50;99.90
21312;DHT22;18076;52.154;10.570;2023-03-08T09:01:15;2.50;99.90
21312;DHT22;18076;52.154;10.570;2023-03-08T09:03:42;2.60;99.90
21312;DHT22;18076;52.154;10.570;2023-03-08T09:06:08;2.60;99.90
21312;DHT22;18076;52.154;10.570;2023-03-08T09:08:33;2.70;99.90
21312;DHT22;18076;52.154;10.570;2023-03-08T09:11:06;2.80;99.90
21312;DHT22;18076;52.154;10.570;2023-03-08T09:13:32;2.90;99.90
21312;DHT22;18076;52.154;10.570;2023-03-08T09:15:58;3.00;99.90
21312;DHT22;18076;52.154;10.570;2023-03-08T09:18:23;3.10;99.90
21312;DHT22;18076;52.154;10.570;2023-03-08T09:20:49;3.20;99.90
21312;DHT22;18076;52.154;10.570;2023-03-08T09:23:16;3.40;99.90
21312;DHT22;18076;52.154;10.570;2023-03-08T09:25:42;3.40;99.90
21312;DHT22;18076;52.154;10.570;2023-03-08T09:28:08;3.40;99.90
21312;DHT22;18076;52.154;10.570;2023-03-08T09:30:35;3.40;99.90
21312;DHT22;18076;52.154;10.570;2023-03-08T09:33:00;3.40;99.90
21312;DHT22;18076;52.154;10.570;2023-03-08T09:35:28;3.40;99.90
21312;DHT22;18076;52.154;10.570;2023-03-08T09:37:54;3.30;99.90
21312;DHT22;18076;52.154;10.570;2023-03-08T09:40:21;3.30;99.90
21312;DHT22;18076;52.154;10.570;2023-03-08T09:42:48;3.30;99.90
21312;DHT22;18076;52.154;10.570;2023-03-08T09:45:19;3.40;99.90
21312;DHT22;18076;52.154;10.570;2023-03-08T09:47:46;3.30;99.90
21312;DHT22;18076;52.154;10.570;2023-03-08T09:50:34;3.40;99.90
21312;DHT22;18076;52.154;10.570;2023-03-08T09:55:27;3.60;99.90
21312;DHT22;18076;52.154;10.570;2023-03-08T09:57:59;3.70;99.90
21312;DHT22;18076;52.154;10.570;2023-03-08T10:00:27;3.90;99.90
21312;DHT22;18076;52.154;10.570;2023-03-08T10:05:23;4.30;99.90
21312;DHT22;18076;52.154;10.570;2023-03-08T10:10:29;4.10;99.90
21312;DHT22;18076;52.154;10.570;2023-03-08T10:13:13;4.20;99.90
21312;DHT22;18076;52.154;10.570;2023-03-08T10:15:45;4.20;99.90
21312;DHT22;18076;52.154;10.570;2023-03-08T10:18:21;4.20;99.90
21312;DHT22;18076;52.154;10.570;2023-03-08T10:20:55;4.10;99.90
21312;DHT22;18076;52.154;10.570;2023-03-08T10:23:26;4.10;99.90
21312;DHT22;18076;52.154;10.570;2023-03-08T10:25:53;4.10;99.90
21312;DHT22;18076;52.154;10.570;2023-03-08T10:34:38;4.00;99.90
21312;DHT22;18076;52.154;10.570;2023-03-08T10:37:04;4.10;99.90
21312;DHT22;18076;52.154;10.570;2023-03-08T10:39:52;4.00;99.90
21312;DHT22;18076;52.154;10.570;2023-03-08T10:42:25;4.00;99.90
21312;DHT22;18076;52.154;10.570;2023-03-08T10:44:56;4.00;99.90
21312;DHT22;18076;52.154;10.570;2023-03-08T10:47:37;4.00;99.90
21312;DHT22;18076;52.154;10.570;2023-03-08T10:52:33;4.10;99.90
21312;DHT22;18076;52.154;10.570;2023-03-08T10:55:09;4.10;99.90
21312;DHT22;18076;52.154;10.570;2023-03-08T10:57:35;4.20;99.90
21312;DHT22;18076;52.154;10.570;2023-03-08T11:00:03;4.10;99.90
21312;DHT22;18076;52.154;10.570;2023-03-08T11:02:33;4.10;99.90
21312;DHT22;18076;52.154;10.570;2023-03-08T11:04:59;3.90;99.90
21312;DHT22;18076;52.154;10.570;2023-03-08T11:07:29;3.90;99.90
21312;DHT22;18076;52.154;10.570;2023-03-08T11:12:36;3.70;99.90
21312;DHT22;18076;52.154;10.570;2023-03-08T11:15:05;3.70;99.90
21312;DHT22;18076;52.154;10.570;2023-03-08T11:17:37;3.60;99.90
21312;DHT22;18076;52.154;10.570;2023-03-08T11:25:10;3.60;99.90
21312;DHT22;18076;52.154;10.570;2023-03-08T11:53:15;3.30;99.90
21312;DHT22;18076;52.154;10.570;2023-03-08T12:00:48;3.20;99.90
21312;DHT22;18076;52.154;10.570;2023-03-08T12:03:24;3.10;99.90
21312;DHT22;18076;52.154;10.570;2023-03-08T12:05:51;3.00;99.90
21312;DHT22;18076;52.154;10.570;2023-03-08T12:08:22;3.00;99.90
21312;DHT22;18076;52.154;10.570;2023-03-08T12:13:19;2.90;99.90
21312;DHT22;18076;52.154;10.570;2023-03-08T12:15:48;3.00;99.90
21312;DHT22;18076;52.154;10.570;2023-03-08T12:18:30;3.10;99.90
21312;DHT22;18076;52.154;10.570;2023-03-08T12:24:01;3.10;99.90
21312;DHT22;18076;52.154;10.570;2023-03-08T12:26:34;3.00;99.90
21312;DHT22;18076;52.154;10.570;2023-03-08T12:29:06;2.90;99.90
21312;DHT22;18076;52.154;10.570;2023-03-08T12:31:37;2.80;99.90
21312;DHT22;18076;52.154;10.570;2023-03-08T12:34:21;2.70;99.90
21312;DHT22;18076;52.154;10.570;2023-03-08T12:36:51;2.60;99.90
21312;DHT22;18076;52.154;10.570;2023-03-08T12:41:58;2.40;99.90
21312;DHT22;18076;52.154;10.570;2023-03-08T12:44:26;2.40;99.90
21312;DHT22;18076;52.154;10.570;2023-03-08T12:46:56;2.40;99.90
21312;DHT22;18076;52.154;10.570;2023-03-08T12:49:27;2.40;99.90
21312;DHT22;18076;52.154;10.570;2023-03-08T12:51:57;2.40;99.90
21312;DHT22;18076;52.154;10.570;2023-03-08T12:54:23;2.30;99.90
21312;DHT22;18076;52.154;10.570;2023-03-08T12:56:49;2.30;99.90
21312;DHT22;18076;52.154;10.570;2023-03-08T13:01:45;2.30;99.90
21312;DHT22;18076;52.154;10.570;2023-03-08T13:04:33;2.40;99.90
21312;DHT22;18076;52.154;10.570;2023-03-08T13:12:35;2.30;99.90
21312;DHT22;18076;52.154;10.570;2023-03-08T13:15:07;2.30;99.90
21312;DHT22;18076;52.154;10.570;2023-03-08T13:17:35;2.40;99.90
21312;DHT22;18076;52.154;10.570;2023-03-08T13:22:37;2.30;99.90
21312;DHT22;18076;52.154;10.570;2023-03-08T13:25:08;2.40;99.90
21312;DHT22;18076;52.154;10.570;2023-03-08T13:27:46;2.40;99.90
21312;DHT22;18076;52.154;10.570;2023-03-08T13:30:28;2.40;99.90
21312;DHT22;18076;52.154;10.570;2023-03-08T13:32:54;2.50;99.90
21312;DHT22;18076;52.154;10.570;2023-03-08T13:35:23;2.40;99.90
21312;DHT22;18076;52.154;10.570;2023-03-08T13:37:55;2.40;99.90
21312;DHT22;18076;52.154;10.570;2023-03-08T13:40:23;2.30;99.90
21312;DHT22;18076;52.154;10.570;2023-03-08T13:42:57;2.30;99.90
21312;DHT22;18076;52.154;10.570;2023-03-08T13:45:23;2.30;99.90
21312;DHT22;18076;52.154;10.570;2023-03-08T13:47:49;2.20;99.90
21312;DHT22;18076;52.154;10.570;2023-03-08T13:50:58;2.10;99.90
21312;DHT22;18076;52.154;10.570;2023-03-08T13:53:08;2.10;99.90
21312;DHT22;18076;52.154;10.570;2023-03-08T13:55:37;2.00;99.90
21312;DHT22;18076;52.154;10.570;2023-03-08T13:58:03;2.00;99.90
21312;DHT22;18076;52.154;10.570;2023-03-08T14:00:34;2.00;99.90
21312;DHT22;18076;52.154;10.570;2023-03-08T14:03:00;2.00;99.90
21312;DHT22;18076;52.154;10.570;2023-03-08T14:05:27;2.00;99.90
21312;DHT22;18076;52.154;10.570;2023-03-08T14:08:04;1.90;99.90
21312;DHT22;18076;52.154;10.570;2023-03-08T14:10:37;1.90;99.90
21312;DHT22;18076;52.154;10.570;2023-03-08T14:13:04;1.90;99.90
21312;DHT22;18076;52.154;10.570;2023-03-08T14:15:30;2.00;99.90
21312;DHT22;18076;52.154;10.570;2023-03-08T14:17:57;2.00;99.90
21312;DHT22;18076;52.154;10.570;2023-03-08T14:20:23;2.10;99.90
21312;DHT22;18076;52.154;10.570;2023-03-08T14:22:50;2.20;99.90
21312;DHT22;18076;52.154;10.570;2023-03-08T14:25:22;2.20;99.90
21312;DHT22;18076;52.154;10.570;2023-03-08T14:27:48;2.30;99.90
21312;DHT22;18076;52.154;10.570;2023-03-08T14:30:15;2.30;99.90
21312;DHT22;18076;52.154;10.570;2023-03-08T14:32:53;2.30;99.90
21312;DHT22;18076;52.154;10.570;2023-03-08T14:35:25;2.30;99.90
21312;DHT22;18076;52.154;10.570;2023-03-08T14:37:50;2.30;99.90
21312;DHT22;18076;52.154;10.570;2023-03-08T14:40:35;2.30;99.90
21312;DHT22;18076;52.154;10.570;2023-03-08T14:43:05;2.20;99.90
21312;DHT22;18076;52.154;10.570;2023-03-08T14:48:00;2.10;99.90
21312;DHT22;18076;52.154;10.570;2023-03-08T14:50:33;2.20;99.90
21312;DHT22;18076;52.154;10.570;2023-03-08T14:52:59;2.20;99.90
21312;DHT22;18076;52.154;10.570;2023-03-08T14:57:55;2.20;99.90
21312;DHT22;18076;52.154;10.570;2023-03-08T15:00:23;2.10;99.90
21312;DHT22;18076;52.154;10.570;2023-03-08T15:02:48;2.10;99.90
21312;DHT22;18076;52.154;10.570;2023-03-08T15:05:15;2.00;99.90
21312;DHT22;18076;52.154;10.570;2023-03-08T15:07:41;2.00;99.90
21312;DHT22;18076;52.154;10.570;2023-03-08T15:10:08;2.00;99.90
21312;DHT22;18076;52.154;10.570;2023-03-08T15:12:34;2.00;99.90
21312;DHT22;18076;52.154;10.570;2023-03-08T15:14:59;2.00;99.90
21312;DHT22;18076;52.154;10.570;2023-03-08T15:17:25;2.10;99.90
21312;DHT22;18076;52.154;10.570;2023-03-08T15:19:50;2.10;99.90
21312;DHT22;18076;52.154;10.570;2023-03-08T15:22:16;2.00;99.90
21312;DHT22;18076;52.154;10.570;2023-03-08T15:24:41;2.00;99.90
21312;DHT22;18076;52.154;10.570;2023-03-08T15:27:13;2.10;99.90
21312;DHT22;18076;52.154;10.570;2023-03-08T15:29:42;2.00;99.90
21312;DHT22;18076;52.154;10.570;2023-03-08T15:32:08;2.00;99.90
21312;DHT22;18076;52.154;10.570;2023-03-08T15:34:33;2.00;99.90
21312;DHT22;18076;52.154;10.570;2023-03-08T15:36:59;2.10;99.90
21312;DHT22;18076;52.154;10.570;2023-03-08T15:39:25;2.10;99.90
21312;DHT22;18076;52.154;10.570;2023-03-08T15:41:50;2.10;99.90
21312;DHT22;18076;52.154;10.570;2023-03-08T15:44:16;2.10;99.90
21312;DHT22;18076;52.154;10.570;2023-03-08T15:46:42;2.00;99.90
21312;DHT22;18076;52.154;10.570;2023-03-08T15:49:08;2.10;99.90
21312;DHT22;18076;52.154;10.570;2023-03-08T15:51:34;2.10;99.90
21312;DHT22;18076;52.154;10.570;2023-03-08T15:54:01;2.10;99.90
21312;DHT22;18076;52.154;10.570;2023-03-08T15:56:27;2.10;99.90
21312;DHT22;18076;52.154;10.570;2023-03-08T15:58:52;2.00;99.90
21312;DHT22;18076;52.154;10.570;2023-03-08T16:01:19;2.00;99.90
21312;DHT22;18076;52.154;10.570;2023-03-08T16:03:45;2.00;99.90
21312;DHT22;18076;52.154;10.570;2023-03-08T16:06:11;2.00;99.90
21312;DHT22;18076;52.154;10.570;2023-03-08T16:08:37;2.00;99.90
21312;DHT22;18076;52.154;10.570;2023-03-08T16:11:14;2.00;99.90
21312;DHT22;18076;52.154;10.570;2023-03-08T16:13:40;1.90;99.90
21312;DHT22;18076;52.154;10.570;2023-03-08T16:16:06;2.00;99.90
21312;DHT22;18076;52.154;10.570;2023-03-08T16:18:32;1.90;99.90
21312;DHT22;18076;52.154;10.570;2023-03-08T16:20:58;1.90;99.90
21312;DHT22;18076;52.154;10.570;2023-03-08T16:23:24;1.90;99.90
21312;DHT22;18076;52.154;10.570;2023-03-08T16:25:57;1.90;99.90
21312;DHT22;18076;52.154;10.570;2023-03-08T16:28:23;1.90;99.90
21312;DHT22;18076;52.154;10.570;2023-03-08T16:30:48;1.80;99.90
21312;DHT22;18076;52.154;10.570;2023-03-08T16:33:14;1.80;99.90
21312;DHT22;18076;52.154;10.570;2023-03-08T16:35:39;1.80;99.90
21312;DHT22;18076;52.154;10.570;2023-03-08T16:38:06;1.80;99.90
21312;DHT22;18076;52.154;10.570;2023-03-08T16:40:31;1.70;99.90
21312;DHT22;18076;52.154;10.570;2023-03-08T16:42:57;1.70;99.90
21312;DHT22;18076;52.154;10.570;2023-03-08T16:45:23;1.70;99.90
21312;DHT22;18076;52.154;10.570;2023-03-08T16:47:48;1.80;99.90
21312;DHT22;18076;52.154;10.570;2023-03-08T16:50:14;1.80;99.90
21312;DHT22;18076;52.154;10.570;2023-03-08T16:52:39;1.70;99.90
21312;DHT22;18076;52.154;10.570;2023-03-08T16:55:05;1.60;99.90
21312;DHT22;18076;52.154;10.570;2023-03-08T16:57:33;1.60;99.90
21312;DHT22;18076;52.154;10.570;2023-03-08T16:59:59;1.70;99.90